sensor_id;sensor_type;location;lat;lon;timestamp;P1;durP1;ratioP1;P2;durP2;ratioP2
16246;SDS011;8231;50.866;7.944;2024-02-26T00:01:00;1.27;;;1.17;;
16246;SDS011;8231;50.866;7.944;2024-02-26T00:03:28;1.55;;;1.17;;
16246;SDS011;8231;50.866;7.944;2024-02-26T00:06:00;3.08;;;1.20;;
16246;SDS011;8231;50.866;7.944;2024-02-26T00:08:29;1.20;;;1.10;;
16246;SDS011;8231;50.866;7.944;2024-02-26T00:10:57;2.80;;;1.48;;
16246;SDS011;8231;50.866;7.944;2024-02-26T00:13:25;1.10;;;0.93;;
16246;SDS011;8231;50.866;7.944;2024-02-26T00:15:54;0.88;;;0.80;;
16246;SDS011;8231;50.866;7.944;2024-02-26T00:18:22;2.42;;;1.40;;
16246;SDS011;8231;50.866;7.944;2024-02-26T00:20:51;1.40;;;1.27;;
16246;SDS011;8231;50.866;7.944;2024-02-26T00:23:20;1.45;;;1.10;;
16246;SDS011;8231;50.866;7.944;2024-02-26T00:25:50;1.00;;;0.98;;
16246;SDS011;8231;50.866;7.944;2024-02-26T00:28:18;1.20;;;1.10;;
16246;SDS011;8231;50.866;7.944;2024-02-26T00:30:47;1.20;;;0.93;;
16246;SDS011;8231;50.866;7.944;2024-02-26T00:33:16;0.95;;;0.80;;
16246;SDS011;8231;50.866;7.944;2024-02-26T00:35:44;1.40;;;1.10;;
16246;SDS011;8231;50.866;7.944;2024-02-26T00:38:13;1.10;;;1.00;;
16246;SDS011;8231;50.866;7.944;2024-02-26T00:40:42;1.67;;;0.90;;
16246;SDS011;8231;50.866;7.944;2024-02-26T00:43:11;0.98;;;0.98;;
16246;SDS011;8231;50.866;7.944;2024-02-26T00:45:40;1.20;;;0.90;;
16246;SDS011;8231;50.866;7.944;2024-02-26T00:48:08;1.02;;;1.02;;
16246;SDS011;8231;50.866;7.944;2024-02-26T00:50:36;1.13;;;1.00;;
16246;SDS011;8231;50.866;7.944;2024-02-26T00:53:04;2.70;;;1.10;;
16246;SDS011;8231;50.866;7.944;2024-02-26T00:55:32;1.13;;;0.90;;
16246;SDS011;8231;50.866;7.944;2024-02-26T00:58:02;1.08;;;0.98;;
16246;SDS011;8231;50.866;7.944;2024-02-26T01:00:30;2.72;;;1.20;;
16246;SDS011;8231;50.866;7.944;2024-02-26T01:02:58;1.05;;;1.00;;
16246;SDS011;8231;50.866;7.944;2024-02-26T01:05:27;1.00;;;0.90;;
16246;SDS011;8231;50.866;7.944;2024-02-26T01:07:55;1.00;;;1.00;;
16246;SDS011;8231;50.866;7.944;2024-02-26T01:10:24;1.45;;;1.10;;
16246;SDS011;8231;50.866;7.944;2024-02-26T01:12:52;1.38;;;1.20;;
16246;SDS011;8231;50.866;7.944;2024-02-26T01:15:21;1.25;;;0.93;;
16246;SDS011;8231;50.866;7.944;2024-02-26T01:17:50;1.00;;;0.90;;
16246;SDS011;8231;50.866;7.944;2024-02-26T01:20:19;1.70;;;1.30;;
16246;SDS011;8231;50.866;7.944;2024-02-26T01:22:47;1.83;;;0.82;;
16246;SDS011;8231;50.866;7.944;2024-02-26T01:25:15;2.25;;;1.10;;
16246;SDS011;8231;50.866;7.944;2024-02-26T01:27:44;1.00;;;0.90;;
16246;SDS011;8231;50.866;7.944;2024-02-26T01:30:13;1.25;;;1.00;;
16246;SDS011;8231;50.866;7.944;2024-02-26T01:32:44;1.67;;;1.20;;
16246;SDS011;8231;50.866;7.944;2024-02-26T01:35:12;1.50;;;1.40;;
16246;SDS011;8231;50.866;7.944;2024-02-26T01:37:40;1.42;;;1.00;;
16246;SDS011;8231;50.866;7.944;2024-02-26T01:40:10;0.80;;;0.80;;
16246;SDS011;8231;50.866;7.944;2024-02-26T01:42:44;1.23;;;0.95;;
16246;SDS011;8231;50.866;7.944;2024-02-26T01:45:13;1.52;;;1.20;;
16246;SDS011;8231;50.866;7.944;2024-02-26T01:47:51;1.10;;;1.02;;
16246;SDS011;8231;50.866;7.944;2024-02-26T01:50:20;1.75;;;1.13;;
16246;SDS011;8231;50.866;7.944;2024-02-26T01:52:49;1.13;;;1.02;;
16246;SDS011;8231;50.866;7.944;2024-02-26T01:55:19;1.75;;;1.30;;
16246;SDS011;8231;50.866;7.944;2024-02-26T01:57:50;1.58;;;1.30;;
16246;SDS011;8231;50.866;7.944;2024-02-26T02:00:20;1.20;;;1.10;;
16246;SDS011;8231;50.866;7.944;2024-02-26T02:02:50;1.17;;;1.08;;
16246;SDS011;8231;50.866;7.944;2024-02-26T02:05:21;2.33;;;2.03;;
16246;SDS011;8231;50.866;7.944;2024-02-26T02:07:50;1.48;;;1.38;;
16246;SDS011;8231;50.866;7.944;2024-02-26T02:10:19;2.42;;;1.10;;
16246;SDS011;8231;50.866;7.944;2024-02-26T02:12:51;1.33;;;1.15;;
16246;SDS011;8231;50.866;7.944;2024-02-26T02:15:20;1.85;;;1.10;;
16246;SDS011;8231;50.866;7.944;2024-02-26T02:17:48;2.58;;;1.00;;
16246;SDS011;8231;50.866;7.944;2024-02-26T02:20:18;1.00;;;0.82;;
16246;SDS011;8231;50.866;7.944;2024-02-26T02:22:48;1.42;;;1.20;;
16246;SDS011;8231;50.866;7.944;2024-02-26T02:25:16;1.40;;;1.30;;
16246;SDS011;8231;50.866;7.944;2024-02-26T02:27:45;1.50;;;1.40;;
16246;SDS011;8231;50.866;7.944;2024-02-26T02:30:13;1.60;;;1.20;;
16246;SDS011;8231;50.866;7.944;2024-02-26T02:32:42;1.77;;;1.20;;
16246;SDS011;8231;50.866;7.944;2024-02-26T02:35:11;1.25;;;1.15;;
16246;SDS011;8231;50.866;7.944;2024-02-26T02:37:39;1.20;;;1.10;;
16246;SDS011;8231;50.866;7.944;2024-02-26T02:40:09;1.38;;;1.10;;
16246;SDS011;8231;50.866;7.944;2024-02-26T02:42:37;1.67;;;1.20;;
16246;SDS011;8231;50.866;7.944;2024-02-26T02:45:05;1.75;;;1.10;;
16246;SDS011;8231;50.866;7.944;2024-02-26T02:47:35;0.95;;;0.90;;
16246;SDS011;8231;50.866;7.944;2024-02-26T02:50:04;2.78;;;1.10;;
16246;SDS011;8231;50.866;7.944;2024-02-26T02:52:33;1.13;;;1.02;;
16246;SDS011;8231;50.866;7.944;2024-02-26T02:55:01;1.63;;;1.17;;
16246;SDS011;8231;50.866;7.944;2024-02-26T02:57:31;1.08;;;0.98;;
16246;SDS011;8231;50.866;7.944;2024-02-26T03:00:07;1.77;;;0.90;;
16246;SDS011;8231;50.866;7.944;2024-02-26T03:02:36;1.67;;;1.25;;
16246;SDS011;8231;50.866;7.944;2024-02-26T03:05:05;1.65;;;1.00;;
16246;SDS011;8231;50.866;7.944;2024-02-26T03:07:34;1.33;;;1.23;;
16246;SDS011;8231;50.866;7.944;2024-02-26T03:10:02;1.33;;;1.23;;
16246;SDS011;8231;50.866;7.944;2024-02-26T03:12:31;1.95;;;1.10;;
16246;SDS011;8231;50.866;7.944;2024-02-26T03:15:01;1.77;;;0.98;;
16246;SDS011;8231;50.866;7.944;2024-02-26T03:17:30;1.55;;;1.20;;
16246;SDS011;8231;50.866;7.944;2024-02-26T03:20:00;1.23;;;1.10;;
16246;SDS011;8231;50.866;7.944;2024-02-26T03:22:30;0.90;;;0.90;;
16246;SDS011;8231;50.866;7.944;2024-02-26T03:24:58;1.15;;;1.00;;
16246;SDS011;8231;50.866;7.944;2024-02-26T03:27:26;1.23;;;1.13;;
16246;SDS011;8231;50.866;7.944;2024-02-26T03:29:56;1.58;;;1.30;;
16246;SDS011;8231;50.866;7.944;2024-02-26T03:32:24;1.30;;;1.20;;
16246;SDS011;8231;50.866;7.944;2024-02-26T03:34:53;2.97;;;1.30;;
16246;SDS011;8231;50.866;7.944;2024-02-26T03:37:22;3.33;;;1.60;;
16246;SDS011;8231;50.866;7.944;2024-02-26T03:39:51;1.55;;;1.45;;
16246;SDS011;8231;50.866;7.944;2024-02-26T03:42:19;1.40;;;1.30;;
16246;SDS011;8231;50.866;7.944;2024-02-26T03:44:48;1.92;;;1.20;;
16246;SDS011;8231;50.866;7.944;2024-02-26T03:47:17;1.70;;;1.30;;
16246;SDS011;8231;50.866;7.944;2024-02-26T03:49:46;1.77;;;1.52;;
16246;SDS011;8231;50.866;7.944;2024-02-26T03:52:15;2.00;;;1.33;;
16246;SDS011;8231;50.866;7.944;2024-02-26T03:54:43;1.58;;;1.48;;
16246;SDS011;8231;50.866;7.944;2024-02-26T03:57:11;1.40;;;1.30;;
16246;SDS011;8231;50.866;7.944;2024-02-26T03:59:41;2.22;;;1.45;;
16246;SDS011;8231;50.866;7.944;2024-02-26T04:02:09;1.40;;;1.30;;
16246;SDS011;8231;50.866;7.944;2024-02-26T04:04:39;1.45;;;1.35;;
16246;SDS011;8231;50.866;7.944;2024-02-26T04:07:07;3.97;;;2.38;;
16246;SDS011;8231;50.866;7.944;2024-02-26T04:09:36;3.05;;;2.25;;
16246;SDS011;8231;50.866;7.944;2024-02-26T04:12:04;3.42;;;2.50;;
16246;SDS011;8231;50.866;7.944;2024-02-26T04:14:33;1.58;;;1.48;;
16246;SDS011;8231;50.866;7.944;2024-02-26T04:17:01;2.22;;;1.90;;
16246;SDS011;8231;50.866;7.944;2024-02-26T04:19:30;2.15;;;1.77;;
16246;SDS011;8231;50.866;7.944;2024-02-26T04:22:00;1.35;;;1.25;;
16246;SDS011;8231;50.866;7.944;2024-02-26T04:24:28;2.90;;;1.80;;
16246;SDS011;8231;50.866;7.944;2024-02-26T04:26:57;2.22;;;1.98;;
16246;SDS011;8231;50.866;7.944;2024-02-26T04:29:25;1.90;;;1.77;;
16246;SDS011;8231;50.866;7.944;2024-02-26T04:31:53;1.48;;;1.38;;
16246;SDS011;8231;50.866;7.944;2024-02-26T04:34:21;1.42;;;1.33;;
16246;SDS011;8231;50.866;7.944;2024-02-26T04:36:50;1.60;;;1.50;;
16246;SDS011;8231;50.866;7.944;2024-02-26T04:39:20;2.67;;;1.30;;
16246;SDS011;8231;50.866;7.944;2024-02-26T04:41:48;2.10;;;1.90;;
16246;SDS011;8231;50.866;7.944;2024-02-26T04:44:17;1.70;;;1.60;;
16246;SDS011;8231;50.866;7.944;2024-02-26T04:46:45;2.10;;;1.70;;
16246;SDS011;8231;50.866;7.944;2024-02-26T04:49:13;1.60;;;1.50;;
16246;SDS011;8231;50.866;7.944;2024-02-26T04:51:42;3.28;;;1.70;;
16246;SDS011;8231;50.866;7.944;2024-02-26T04:54:10;1.60;;;1.50;;
16246;SDS011;8231;50.866;7.944;2024-02-26T04:56:40;1.67;;;1.58;;
16246;SDS011;8231;50.866;7.944;2024-02-26T04:59:08;2.60;;;2.10;;
16246;SDS011;8231;50.866;7.944;2024-02-26T05:01:37;2.95;;;1.70;;
16246;SDS011;8231;50.866;7.944;2024-02-26T05:04:05;1.83;;;1.52;;
16246;SDS011;8231;50.866;7.944;2024-02-26T05:06:36;1.52;;;1.42;;
16246;SDS011;8231;50.866;7.944;2024-02-26T05:09:04;1.80;;;1.50;;
16246;SDS011;8231;50.866;7.944;2024-02-26T05:11:32;1.70;;;1.60;;
16246;SDS011;8231;50.866;7.944;2024-02-26T05:14:04;1.42;;;1.33;;
16246;SDS011;8231;50.866;7.944;2024-02-26T05:16:32;2.25;;;1.50;;
16246;SDS011;8231;50.866;7.944;2024-02-26T05:19:00;1.35;;;1.23;;
16246;SDS011;8231;50.866;7.944;2024-02-26T05:21:29;2.00;;;1.65;;
16246;SDS011;8231;50.866;7.944;2024-02-26T05:23:58;2.13;;;2.00;;
16246;SDS011;8231;50.866;7.944;2024-02-26T05:26:26;2.40;;;2.20;;
16246;SDS011;8231;50.866;7.944;2024-02-26T05:28:54;2.45;;;2.25;;
16246;SDS011;8231;50.866;7.944;2024-02-26T05:31:27;2.95;;;2.30;;
16246;SDS011;8231;50.866;7.944;2024-02-26T05:33:56;2.55;;;2.35;;
16246;SDS011;8231;50.866;7.944;2024-02-26T05:36:24;2.88;;;2.60;;
16246;SDS011;8231;50.866;7.944;2024-02-26T05:38:55;2.05;;;1.90;;
16246;SDS011;8231;50.866;7.944;2024-02-26T05:41:24;1.95;;;1.85;;
16246;SDS011;8231;50.866;7.944;2024-02-26T05:43:53;2.00;;;1.90;;
16246;SDS011;8231;50.866;7.944;2024-02-26T05:46:21;2.40;;;2.20;;
16246;SDS011;8231;50.866;7.944;2024-02-26T05:48:51;4.70;;;4.03;;
16246;SDS011;8231;50.866;7.944;2024-02-26T05:51:20;4.35;;;4.05;;
16246;SDS011;8231;50.866;7.944;2024-02-26T05:53:49;2.97;;;2.78;;
16246;SDS011;8231;50.866;7.944;2024-02-26T05:56:21;2.28;;;2.08;;
16246;SDS011;8231;50.866;7.944;2024-02-26T05:58:49;2.30;;;2.10;;
16246;SDS011;8231;50.866;7.944;2024-02-26T06:01:19;2.53;;;2.33;;
16246;SDS011;8231;50.866;7.944;2024-02-26T06:03:47;1.85;;;1.75;;
16246;SDS011;8231;50.866;7.944;2024-02-26T06:06:17;2.85;;;1.70;;
16246;SDS011;8231;50.866;7.944;2024-02-26T06:08:46;1.58;;;1.48;;
16246;SDS011;8231;50.866;7.944;2024-02-26T06:11:14;2.58;;;2.10;;
16246;SDS011;8231;50.866;7.944;2024-02-26T06:13:42;2.22;;;1.98;;
16246;SDS011;8231;50.866;7.944;2024-02-26T06:16:11;1.95;;;1.85;;
16246;SDS011;8231;50.866;7.944;2024-02-26T06:18:39;2.60;;;2.05;;
16246;SDS011;8231;50.866;7.944;2024-02-26T06:21:09;2.88;;;2.42;;
16246;SDS011;8231;50.866;7.944;2024-02-26T06:23:39;3.00;;;2.80;;
16246;SDS011;8231;50.866;7.944;2024-02-26T06:26:08;3.00;;;2.80;;
16246;SDS011;8231;50.866;7.944;2024-02-26T06:28:36;3.60;;;2.58;;
16246;SDS011;8231;50.866;7.944;2024-02-26T06:31:07;3.00;;;2.70;;
16246;SDS011;8231;50.866;7.944;2024-02-26T06:33:35;3.65;;;3.03;;
16246;SDS011;8231;50.866;7.944;2024-02-26T06:36:04;3.50;;;3.20;;
16246;SDS011;8231;50.866;7.944;2024-02-26T06:38:32;3.15;;;2.85;;
16246;SDS011;8231;50.866;7.944;2024-02-26T06:41:02;3.58;;;3.03;;
16246;SDS011;8231;50.866;7.944;2024-02-26T06:43:31;3.22;;;2.92;;
16246;SDS011;8231;50.866;7.944;2024-02-26T06:45:59;5.55;;;3.53;;
16246;SDS011;8231;50.866;7.944;2024-02-26T06:48:27;3.78;;;2.53;;
16246;SDS011;8231;50.866;7.944;2024-02-26T06:50:55;2.60;;;2.35;;
16246;SDS011;8231;50.866;7.944;2024-02-26T06:53:23;4.32;;;2.97;;
16246;SDS011;8231;50.866;7.944;2024-02-26T06:55:52;5.43;;;3.65;;
16246;SDS011;8231;50.866;7.944;2024-02-26T06:58:21;4.53;;;4.07;;
16246;SDS011;8231;50.866;7.944;2024-02-26T07:00:49;5.97;;;3.38;;
16246;SDS011;8231;50.866;7.944;2024-02-26T07:03:18;4.30;;;3.05;;
16246;SDS011;8231;50.866;7.944;2024-02-26T07:05:46;4.50;;;3.38;;
16246;SDS011;8231;50.866;7.944;2024-02-26T07:08:14;2.70;;;2.45;;
16246;SDS011;8231;50.866;7.944;2024-02-26T07:10:43;3.15;;;2.70;;
16246;SDS011;8231;50.866;7.944;2024-02-26T07:13:11;3.30;;;2.35;;
16246;SDS011;8231;50.866;7.944;2024-02-26T07:15:40;3.47;;;2.47;;
16246;SDS011;8231;50.866;7.944;2024-02-26T07:18:09;2.53;;;2.33;;
16246;SDS011;8231;50.866;7.944;2024-02-26T07:20:38;2.30;;;2.10;;
16246;SDS011;8231;50.866;7.944;2024-02-26T07:23:08;2.45;;;2.13;;
16246;SDS011;8231;50.866;7.944;2024-02-26T07:25:36;2.90;;;2.40;;
16246;SDS011;8231;50.866;7.944;2024-02-26T07:28:05;2.80;;;2.55;;
16246;SDS011;8231;50.866;7.944;2024-02-26T07:30:33;4.13;;;2.45;;
16246;SDS011;8231;50.866;7.944;2024-02-26T07:33:03;3.15;;;2.80;;
16246;SDS011;8231;50.866;7.944;2024-02-26T07:35:31;4.90;;;3.35;;
16246;SDS011;8231;50.866;7.944;2024-02-26T07:38:00;6.22;;;4.82;;
16246;SDS011;8231;50.866;7.944;2024-02-26T07:40:28;5.40;;;4.00;;
16246;SDS011;8231;50.866;7.944;2024-02-26T07:42:57;6.13;;;4.07;;
16246;SDS011;8231;50.866;7.944;2024-02-26T07:45:25;4.82;;;3.08;;
16246;SDS011;8231;50.866;7.944;2024-02-26T07:47:53;3.25;;;2.63;;
16246;SDS011;8231;50.866;7.944;2024-02-26T07:50:23;3.03;;;2.50;;
16246;SDS011;8231;50.866;7.944;2024-02-26T07:52:51;4.97;;;2.45;;
16246;SDS011;8231;50.866;7.944;2024-02-26T07:55:20;7.53;;;2.88;;
16246;SDS011;8231;50.866;7.944;2024-02-26T07:57:49;5.93;;;3.28;;
16246;SDS011;8231;50.866;7.944;2024-02-26T08:00:18;2.85;;;2.53;;
16246;SDS011;8231;50.866;7.944;2024-02-26T08:02:46;4.22;;;2.65;;
16246;SDS011;8231;50.866;7.944;2024-02-26T08:05:15;5.28;;;2.88;;
16246;SDS011;8231;50.866;7.944;2024-02-26T08:07:44;3.60;;;2.88;;
16246;SDS011;8231;50.866;7.944;2024-02-26T08:10:12;3.78;;;2.72;;
16246;SDS011;8231;50.866;7.944;2024-02-26T08:12:41;3.47;;;2.25;;
16246;SDS011;8231;50.866;7.944;2024-02-26T08:15:11;2.97;;;2.67;;
16246;SDS011;8231;50.866;7.944;2024-02-26T08:17:39;2.90;;;2.60;;
16246;SDS011;8231;50.866;7.944;2024-02-26T08:20:08;3.10;;;2.78;;
16246;SDS011;8231;50.866;7.944;2024-02-26T08:22:37;3.28;;;2.97;;
16246;SDS011;8231;50.866;7.944;2024-02-26T08:25:07;3.17;;;2.80;;
16246;SDS011;8231;50.866;7.944;2024-02-26T08:27:38;3.28;;;3.00;;
16246;SDS011;8231;50.866;7.944;2024-02-26T08:30:07;4.10;;;3.47;;
16246;SDS011;8231;50.866;7.944;2024-02-26T08:32:35;3.45;;;2.60;;
16246;SDS011;8231;50.866;7.944;2024-02-26T08:35:04;3.55;;;2.80;;
16246;SDS011;8231;50.866;7.944;2024-02-26T08:37:32;3.38;;;3.08;;
16246;SDS011;8231;50.866;7.944;2024-02-26T08:40:01;6.57;;;4.25;;
16246;SDS011;8231;50.866;7.944;2024-02-26T08:42:34;6.78;;;3.08;;
16246;SDS011;8231;50.866;7.944;2024-02-26T08:45:02;3.35;;;2.50;;
16246;SDS011;8231;50.866;7.944;2024-02-26T08:47:31;3.70;;;3.13;;
16246;SDS011;8231;50.866;7.944;2024-02-26T08:50:00;3.50;;;3.20;;
16246;SDS011;8231;50.866;7.944;2024-02-26T08:52:28;3.58;;;3.20;;
16246;SDS011;8231;50.866;7.944;2024-02-26T08:54:57;3.10;;;2.70;;
16246;SDS011;8231;50.866;7.944;2024-02-26T08:57:25;3.03;;;2.55;;
16246;SDS011;8231;50.866;7.944;2024-02-26T08:59:55;3.60;;;2.70;;
16246;SDS011;8231;50.866;7.944;2024-02-26T09:02:23;3.72;;;2.90;;
16246;SDS011;8231;50.866;7.944;2024-02-26T09:04:52;3.22;;;2.85;;
16246;SDS011;8231;50.866;7.944;2024-02-26T09:07:22;3.30;;;3.00;;
16246;SDS011;8231;50.866;7.944;2024-02-26T09:09:51;3.60;;;3.30;;
16246;SDS011;8231;50.866;7.944;2024-02-26T09:12:19;5.35;;;3.47;;
16246;SDS011;8231;50.866;7.944;2024-02-26T09:14:47;5.95;;;3.03;;
16246;SDS011;8231;50.866;7.944;2024-02-26T09:17:18;3.72;;;3.00;;
16246;SDS011;8231;50.866;7.944;2024-02-26T09:19:46;3.35;;;3.03;;
16246;SDS011;8231;50.866;7.944;2024-02-26T09:22:14;2.65;;;2.20;;
16246;SDS011;8231;50.866;7.944;2024-02-26T09:24:44;4.38;;;3.00;;
16246;SDS011;8231;50.866;7.944;2024-02-26T09:27:13;3.65;;;3.33;;
16246;SDS011;8231;50.866;7.944;2024-02-26T09:29:41;4.07;;;3.08;;
16246;SDS011;8231;50.866;7.944;2024-02-26T09:32:10;4.88;;;3.80;;
16246;SDS011;8231;50.866;7.944;2024-02-26T09:34:40;5.30;;;3.78;;
16246;SDS011;8231;50.866;7.944;2024-02-26T09:37:09;5.07;;;4.15;;
16246;SDS011;8231;50.866;7.944;2024-02-26T09:39:47;4.65;;;3.90;;
16246;SDS011;8231;50.866;7.944;2024-02-26T09:42:17;3.90;;;3.45;;
16246;SDS011;8231;50.866;7.944;2024-02-26T09:44:46;3.85;;;3.42;;
16246;SDS011;8231;50.866;7.944;2024-02-26T09:47:19;4.78;;;3.88;;
16246;SDS011;8231;50.866;7.944;2024-02-26T09:49:50;5.85;;;4.50;;
16246;SDS011;8231;50.866;7.944;2024-02-26T09:52:20;4.75;;;4.20;;
16246;SDS011;8231;50.866;7.944;2024-02-26T09:54:49;4.85;;;3.75;;
16246;SDS011;8231;50.866;7.944;2024-02-26T09:57:17;4.18;;;3.75;;
16246;SDS011;8231;50.866;7.944;2024-02-26T09:59:46;8.65;;;4.10;;
16246;SDS011;8231;50.866;7.944;2024-02-26T10:02:17;5.47;;;3.08;;
16246;SDS011;8231;50.866;7.944;2024-02-26T10:04:49;4.53;;;3.33;;
16246;SDS011;8231;50.866;7.944;2024-02-26T10:07:20;6.25;;;4.22;;
16246;SDS011;8231;50.866;7.944;2024-02-26T10:09:48;6.65;;;5.55;;
16246;SDS011;8231;50.866;7.944;2024-02-26T10:12:18;4.53;;;4.13;;
16246;SDS011;8231;50.866;7.944;2024-02-26T10:14:47;4.45;;;4.05;;
16246;SDS011;8231;50.866;7.944;2024-02-26T10:17:15;4.22;;;3.83;;
16246;SDS011;8231;50.866;7.944;2024-02-26T10:19:43;4.47;;;3.85;;
16246;SDS011;8231;50.866;7.944;2024-02-26T10:22:13;4.40;;;3.65;;
16246;SDS011;8231;50.866;7.944;2024-02-26T10:24:41;4.68;;;3.67;;
16246;SDS011;8231;50.866;7.944;2024-02-26T10:27:10;4.18;;;3.80;;
16246;SDS011;8231;50.866;7.944;2024-02-26T10:29:38;4.20;;;3.90;;
16246;SDS011;8231;50.866;7.944;2024-02-26T10:32:06;3.83;;;3.50;;
16246;SDS011;8231;50.866;7.944;2024-02-26T10:34:35;4.22;;;3.90;;
16246;SDS011;8231;50.866;7.944;2024-02-26T10:37:04;4.57;;;4.10;;
16246;SDS011;8231;50.866;7.944;2024-02-26T10:39:35;4.32;;;3.92;;
16246;SDS011;8231;50.866;7.944;2024-02-26T10:42:05;5.95;;;3.90;;
16246;SDS011;8231;50.866;7.944;2024-02-26T10:44:40;4.25;;;3.33;;
16246;SDS011;8231;50.866;7.944;2024-02-26T10:47:09;4.80;;;3.97;;
16246;SDS011;8231;50.866;7.944;2024-02-26T10:49:37;6.28;;;4.40;;
16246;SDS011;8231;50.866;7.944;2024-02-26T10:52:06;4.55;;;3.83;;
16246;SDS011;8231;50.866;7.944;2024-02-26T10:54:36;5.18;;;4.60;;
16246;SDS011;8231;50.866;7.944;2024-02-26T10:57:08;5.20;;;4.70;;
16246;SDS011;8231;50.866;7.944;2024-02-26T10:59:37;4.45;;;4.07;;
16246;SDS011;8231;50.866;7.944;2024-02-26T11:02:07;5.00;;;4.15;;
16246;SDS011;8231;50.866;7.944;2024-02-26T11:04:37;5.18;;;3.80;;
16246;SDS011;8231;50.866;7.944;2024-02-26T11:07:06;7.43;;;5.50;;
16246;SDS011;8231;50.866;7.944;2024-02-26T11:09:38;6.55;;;5.10;;
16246;SDS011;8231;50.866;7.944;2024-02-26T11:12:11;5.07;;;4.57;;
16246;SDS011;8231;50.866;7.944;2024-02-26T11:14:41;5.30;;;4.32;;
16246;SDS011;8231;50.866;7.944;2024-02-26T11:17:12;4.32;;;3.92;;
16246;SDS011;8231;50.866;7.944;2024-02-26T11:19:43;4.60;;;4.20;;
16246;SDS011;8231;50.866;7.944;2024-02-26T11:22:12;5.60;;;4.97;;
16246;SDS011;8231;50.866;7.944;2024-02-26T11:24:51;4.70;;;3.67;;
16246;SDS011;8231;50.866;7.944;2024-02-26T11:27:21;4.57;;;4.07;;
16246;SDS011;8231;50.866;7.944;2024-02-26T11:29:52;4.85;;;4.32;;
16246;SDS011;8231;50.866;7.944;2024-02-26T11:32:23;6.03;;;4.70;;
16246;SDS011;8231;50.866;7.944;2024-02-26T11:34:54;4.72;;;4.10;;
16246;SDS011;8231;50.866;7.944;2024-02-26T11:37:22;4.90;;;4.45;;
16246;SDS011;8231;50.866;7.944;2024-02-26T11:39:52;5.43;;;4.15;;
16246;SDS011;8231;50.866;7.944;2024-02-26T11:42:22;5.05;;;4.30;;
16246;SDS011;8231;50.866;7.944;2024-02-26T11:44:52;5.13;;;3.90;;
16246;SDS011;8231;50.866;7.944;2024-02-26T11:47:22;4.65;;;4.25;;
16246;SDS011;8231;50.866;7.944;2024-02-26T11:49:51;5.70;;;5.20;;
16246;SDS011;8231;50.866;7.944;2024-02-26T11:52:19;4.50;;;4.07;;
16246;SDS011;8231;50.866;7.944;2024-02-26T11:54:48;5.07;;;4.18;;
16246;SDS011;8231;50.866;7.944;2024-02-26T11:57:25;5.72;;;4.53;;
16246;SDS011;8231;50.866;7.944;2024-02-26T11:59:56;5.25;;;4.75;;
16246;SDS011;8231;50.866;7.944;2024-02-26T12:02:43;5.05;;;3.40;;
16246;SDS011;8231;50.866;7.944;2024-02-26T12:05:14;3.97;;;3.58;;
16246;SDS011;8231;50.866;7.944;2024-02-26T12:07:44;4.53;;;3.47;;
16246;SDS011;8231;50.866;7.944;2024-02-26T12:13:05;4.38;;;3.97;;
16246;SDS011;8231;50.866;7.944;2024-02-26T12:15:36;4.35;;;3.78;;
16246;SDS011;8231;50.866;7.944;2024-02-26T12:18:06;4.15;;;3.75;;
16246;SDS011;8231;50.866;7.944;2024-02-26T12:20:37;4.30;;;3.55;;
16246;SDS011;8231;50.866;7.944;2024-02-26T12:23:05;5.20;;;4.00;;
16246;SDS011;8231;50.866;7.944;2024-02-26T12:25:33;3.58;;;3.28;;
16246;SDS011;8231;50.866;7.944;2024-02-26T12:28:03;7.82;;;3.92;;
16246;SDS011;8231;50.866;7.944;2024-02-26T12:30:32;5.15;;;4.10;;
16246;SDS011;8231;50.866;7.944;2024-02-26T12:33:01;4.90;;;4.43;;
16246;SDS011;8231;50.866;7.944;2024-02-26T12:35:30;4.07;;;3.75;;
16246;SDS011;8231;50.866;7.944;2024-02-26T12:37:59;6.50;;;4.32;;
16246;SDS011;8231;50.866;7.944;2024-02-26T12:40:27;4.55;;;4.15;;
16246;SDS011;8231;50.866;7.944;2024-02-26T12:42:56;5.40;;;3.97;;
16246;SDS011;8231;50.866;7.944;2024-02-26T12:45:25;4.90;;;3.83;;
16246;SDS011;8231;50.866;7.944;2024-02-26T12:47:55;4.50;;;4.10;;
16246;SDS011;8231;50.866;7.944;2024-02-26T12:50:24;4.15;;;3.78;;
16246;SDS011;8231;50.866;7.944;2024-02-26T12:52:53;4.35;;;3.95;;
16246;SDS011;8231;50.866;7.944;2024-02-26T12:55:21;4.20;;;3.80;;
16246;SDS011;8231;50.866;7.944;2024-02-26T12:57:49;5.07;;;4.65;;
16246;SDS011;8231;50.866;7.944;2024-02-26T13:00:19;6.38;;;4.80;;
16246;SDS011;8231;50.866;7.944;2024-02-26T13:02:51;4.38;;;3.97;;
16246;SDS011;8231;50.866;7.944;2024-02-26T13:05:22;4.63;;;4.22;;
16246;SDS011;8231;50.866;7.944;2024-02-26T13:07:51;6.13;;;5.53;;
16246;SDS011;8231;50.866;7.944;2024-02-26T13:10:20;5.10;;;4.63;;
16246;SDS011;8231;50.866;7.944;2024-02-26T13:12:49;6.53;;;4.55;;
16246;SDS011;8231;50.866;7.944;2024-02-26T13:15:18;5.88;;;4.47;;
16246;SDS011;8231;50.866;7.944;2024-02-26T13:17:48;5.70;;;4.80;;
16246;SDS011;8231;50.866;7.944;2024-02-26T13:20:27;4.80;;;4.32;;
16246;SDS011;8231;50.866;7.944;2024-02-26T13:22:59;4.85;;;4.20;;
16246;SDS011;8231;50.866;7.944;2024-02-26T13:25:28;4.95;;;4.38;;
16246;SDS011;8231;50.866;7.944;2024-02-26T13:28:05;6.30;;;5.18;;
16246;SDS011;8231;50.866;7.944;2024-02-26T13:30:34;4.68;;;4.28;;
16246;SDS011;8231;50.866;7.944;2024-02-26T13:33:11;5.03;;;4.53;;
16246;SDS011;8231;50.866;7.944;2024-02-26T13:35:40;5.55;;;4.85;;
16246;SDS011;8231;50.866;7.944;2024-02-26T13:38:09;5.03;;;4.50;;
16246;SDS011;8231;50.866;7.944;2024-02-26T13:40:38;5.47;;;4.22;;
16246;SDS011;8231;50.866;7.944;2024-02-26T13:43:07;5.25;;;4.72;;
16246;SDS011;8231;50.866;7.944;2024-02-26T13:45:36;5.35;;;4.85;;
16246;SDS011;8231;50.866;7.944;2024-02-26T13:48:05;5.82;;;4.75;;
16246;SDS011;8231;50.866;7.944;2024-02-26T13:50:38;6.63;;;4.65;;
16246;SDS011;8231;50.866;7.944;2024-02-26T13:53:06;4.85;;;4.35;;
16246;SDS011;8231;50.866;7.944;2024-02-26T13:55:33;7.15;;;4.60;;
16246;SDS011;8231;50.866;7.944;2024-02-26T13:58:02;4.75;;;4.35;;
16246;SDS011;8231;50.866;7.944;2024-02-26T14:00:31;5.60;;;4.03;;
16246;SDS011;8231;50.866;7.944;2024-02-26T14:03:01;4.90;;;4.20;;
16246;SDS011;8231;50.866;7.944;2024-02-26T14:05:30;5.45;;;4.20;;
16246;SDS011;8231;50.866;7.944;2024-02-26T14:08:00;4.15;;;3.75;;
16246;SDS011;8231;50.866;7.944;2024-02-26T14:10:28;6.03;;;3.72;;
16246;SDS011;8231;50.866;7.944;2024-02-26T14:12:58;4.72;;;4.03;;
16246;SDS011;8231;50.866;7.944;2024-02-26T14:15:27;5.18;;;4.68;;
16246;SDS011;8231;50.866;7.944;2024-02-26T14:17:56;5.63;;;5.05;;
16246;SDS011;8231;50.866;7.944;2024-02-26T14:20:25;5.30;;;4.72;;
16246;SDS011;8231;50.866;7.944;2024-02-26T14:22:53;6.35;;;5.00;;
16246;SDS011;8231;50.866;7.944;2024-02-26T14:25:23;5.20;;;4.50;;
16246;SDS011;8231;50.866;7.944;2024-02-26T14:27:55;4.75;;;4.25;;
16246;SDS011;8231;50.866;7.944;2024-02-26T14:30:25;7.35;;;6.65;;
16246;SDS011;8231;50.866;7.944;2024-02-26T14:32:53;4.65;;;4.25;;
16246;SDS011;8231;50.866;7.944;2024-02-26T14:35:22;4.13;;;3.60;;
16246;SDS011;8231;50.866;7.944;2024-02-26T14:37:51;7.68;;;6.53;;
16246;SDS011;8231;50.866;7.944;2024-02-26T14:40:20;5.03;;;3.95;;
16246;SDS011;8231;50.866;7.944;2024-02-26T14:42:50;4.50;;;4.05;;
16246;SDS011;8231;50.866;7.944;2024-02-26T14:45:18;4.25;;;3.85;;
16246;SDS011;8231;50.866;7.944;2024-02-26T14:47:47;5.93;;;4.20;;
16246;SDS011;8231;50.866;7.944;2024-02-26T14:50:16;4.88;;;4.10;;
16246;SDS011;8231;50.866;7.944;2024-02-26T14:52:44;5.40;;;4.90;;
16246;SDS011;8231;50.866;7.944;2024-02-26T14:55:12;5.93;;;5.32;;
16246;SDS011;8231;50.866;7.944;2024-02-26T14:57:42;5.75;;;4.85;;
16246;SDS011;8231;50.866;7.944;2024-02-26T15:00:10;4.95;;;4.55;;
16246;SDS011;8231;50.866;7.944;2024-02-26T15:02:39;4.70;;;4.07;;
16246;SDS011;8231;50.866;7.944;2024-02-26T15:05:07;4.47;;;4.07;;
16246;SDS011;8231;50.866;7.944;2024-02-26T15:07:38;5.97;;;3.80;;
16246;SDS011;8231;50.866;7.944;2024-02-26T15:10:07;5.00;;;4.18;;
16246;SDS011;8231;50.866;7.944;2024-02-26T15:12:36;4.65;;;4.05;;
16246;SDS011;8231;50.866;7.944;2024-02-26T15:15:07;4.75;;;4.25;;